EDW19 KMCO-LSZH
Flight info
| Callsign | EDW19 |
|---|---|
| Flight time | N/A |
| Altitude | 37000 |
| Route | MZULO3 ETECK AR18 PELCN DCT ROWSY Y493 TUBBS/M081F370 Y493 VEGAA M201 CARAC DCT RAFIN/M081F390 DCT 45N050W 47N040W 49N030W 51N020W DCT DINIM DCT ELSOX/M082F410 DCT GAPLI/N0468F410 DCT LIZAD DCT JSY DCT ARSUK DCT RESMI DCT TEPRI DCT POGZI DCT GELTA DCT MANAG DCT PEVIT DCT BLM |
| Aircraft | A343/H-SDE2E3FGHIJ4J5M1RWXY/LB1D1 |
Departure
| Time | 2026-04-26 05:42 |
|---|---|
| Airport | Orlando International Airport (KMCO) |
Arrival
| Time | N/A |
|---|---|
| Airport | Zürich Airport (LSZH) |
| Time | Latitude | Longitude | Altitude | Speed | Heading |
|---|---|---|---|---|---|
| 2026-04-26 05:16 | 28.41091 | -81.31696 | 99 ft | 0 kts | 0° |
| 2026-04-26 05:26 | 28.41086 | -81.31696 | 98 ft | 1 kts | 0° |
| 2026-04-26 05:26 | 28.41074 | -81.31696 | 100 ft | 3 kts | 0° |
| 2026-04-26 05:26 | 28.41051 | -81.31696 | 97 ft | 3 kts | 360° |
| 2026-04-26 05:26 | 28.41028 | -81.31696 | 97 ft | 3 kts | 347° |
| 2026-04-26 05:27 | 28.41007 | -81.31685 | 98 ft | 3 kts | 303° |
| 2026-04-26 05:27 | 28.40997 | -81.31661 | 97 ft | 3 kts | 290° |
| 2026-04-26 05:27 | 28.40994 | -81.31653 | 96 ft | 0 kts | 269° |
| 2026-04-26 05:28 | 28.40994 | -81.31659 | 96 ft | 4 kts | 269° |
| 2026-04-26 05:29 | 28.40992 | -81.31719 | 102 ft | 10 kts | 269° |
| 2026-04-26 05:29 | 28.41004 | -81.31778 | 100 ft | 6 kts | 308° |
| 2026-04-26 05:29 | 28.41069 | -81.31801 | 99 ft | 15 kts | 0° |
| 2026-04-26 05:29 | 28.41191 | -81.31802 | 101 ft | 17 kts | 359° |
| 2026-04-26 05:30 | 28.41304 | -81.31803 | 102 ft | 16 kts | 359° |
| 2026-04-26 05:30 | 28.41411 | -81.31804 | 102 ft | 15 kts | 360° |
| 2026-04-26 05:30 | 28.41512 | -81.31801 | 101 ft | 14 kts | 4° |
| 2026-04-26 05:30 | 28.41620 | -81.31793 | 101 ft | 17 kts | 3° |
| 2026-04-26 05:31 | 28.41747 | -81.31788 | 103 ft | 18 kts | 359° |
| 2026-04-26 05:31 | 28.41872 | -81.31790 | 104 ft | 18 kts | 359° |
| 2026-04-26 05:31 | 28.41992 | -81.31791 | 103 ft | 17 kts | 359° |
| 2026-04-26 05:31 | 28.42107 | -81.31789 | 104 ft | 16 kts | 6° |
| 2026-04-26 05:32 | 28.42215 | -81.31773 | 103 ft | 16 kts | 12° |
| 2026-04-26 05:32 | 28.42271 | -81.31699 | 103 ft | 10 kts | 59° |
| 2026-04-26 05:32 | 28.42320 | -81.31664 | 103 ft | 7 kts | 36° |
| 2026-04-26 05:32 | 28.42342 | -81.31619 | 105 ft | 7 kts | 72° |
| 2026-04-26 05:33 | 28.42347 | -81.31569 | 101 ft | 9 kts | 88° |
| 2026-04-26 05:33 | 28.42349 | -81.31453 | 100 ft | 21 kts | 89° |
| 2026-04-26 05:33 | 28.42350 | -81.31254 | 98 ft | 26 kts | 96° |
| 2026-04-26 05:33 | 28.42322 | -81.31058 | 99 ft | 24 kts | 99° |
| 2026-04-26 05:34 | 28.42321 | -81.30873 | 101 ft | 23 kts | 85° |
| 2026-04-26 05:34 | 28.42334 | -81.30699 | 102 ft | 21 kts | 86° |
| 2026-04-26 05:34 | 28.42344 | -81.30540 | 100 ft | 20 kts | 85° |
| 2026-04-26 05:34 | 28.42354 | -81.30383 | 98 ft | 19 kts | 88° |
| 2026-04-26 05:35 | 28.42358 | -81.30235 | 101 ft | 18 kts | 90° |
| 2026-04-26 05:35 | 28.42358 | -81.30097 | 101 ft | 17 kts | 89° |
| 2026-04-26 05:35 | 28.42361 | -81.29963 | 98 ft | 17 kts | 88° |
| 2026-04-26 05:35 | 28.42371 | -81.29836 | 100 ft | 15 kts | 66° |
| 2026-04-26 05:36 | 28.42452 | -81.29778 | 101 ft | 13 kts | 39° |
| 2026-04-26 05:36 | 28.42505 | -81.29708 | 102 ft | 11 kts | 29° |
| 2026-04-26 05:36 | 28.42567 | -81.29702 | 100 ft | 8 kts | 1° |
| 2026-04-26 05:36 | 28.42627 | -81.29702 | 100 ft | 11 kts | 359° |
| 2026-04-26 05:37 | 28.42730 | -81.29704 | 100 ft | 17 kts | 359° |
| 2026-04-26 05:37 | 28.42843 | -81.29705 | 101 ft | 16 kts | 359° |
| 2026-04-26 05:37 | 28.42950 | -81.29706 | 100 ft | 15 kts | 359° |
| 2026-04-26 05:37 | 28.43053 | -81.29707 | 101 ft | 15 kts | 0° |
| 2026-04-26 05:38 | 28.43156 | -81.29707 | 100 ft | 14 kts | 360° |
| 2026-04-26 05:38 | 28.43254 | -81.29707 | 102 ft | 14 kts | 360° |
| 2026-04-26 05:38 | 28.43348 | -81.29708 | 101 ft | 13 kts | 359° |
| 2026-04-26 05:38 | 28.43439 | -81.29709 | 101 ft | 13 kts | 359° |
| 2026-04-26 05:39 | 28.43530 | -81.29696 | 102 ft | 12 kts | 33° |
| 2026-04-26 05:39 | 28.43549 | -81.29641 | 102 ft | 6 kts | 86° |
| 2026-04-26 05:39 | 28.43548 | -81.29607 | 103 ft | 2 kts | 108° |
| 2026-04-26 05:39 | 28.43544 | -81.29603 | 102 ft | 2 kts | 131° |
| 2026-04-26 05:40 | 28.43516 | -81.29589 | 102 ft | 4 kts | 165° |
| 2026-04-26 05:40 | 28.43494 | -81.29588 | 103 ft | 3 kts | 179° |
| 2026-04-26 05:40 | 28.43479 | -81.29588 | 102 ft | 2 kts | 179° |
| 2026-04-26 05:40 | 28.43471 | -81.29588 | 103 ft | 1 kts | 179° |
| 2026-04-26 05:41 | 28.43468 | -81.29588 | 103 ft | 0 kts | 179° |
| 2026-04-26 05:41 | 28.43463 | -81.29588 | 104 ft | 7 kts | 179° |
| 2026-04-26 05:41 | 28.43189 | -81.29585 | 103 ft | 73 kts | 179° |
| 2026-04-26 05:41 | 28.42473 | -81.29576 | 100 ft | 131 kts | 179° |
| 2026-04-26 05:42 | 28.41408 | -81.29571 | 296 ft | 161 kts | 179° |
| 2026-04-26 05:42 | 28.40322 | -81.29559 | 1115 ft | 153 kts | 179° |
| 2026-04-26 05:42 | 28.39280 | -81.29481 | 1726 ft | 151 kts | 173° |
| 2026-04-26 05:42 | 28.38207 | -81.29188 | 1929 ft | 168 kts | 159° |
| 2026-04-26 05:43 | 28.37123 | -81.28518 | 2142 ft | 187 kts | 147° |
| 2026-04-26 05:43 | 28.36030 | -81.27604 | 2404 ft | 204 kts | 137° |
| 2026-04-26 05:43 | 28.35302 | -81.26171 | 2630 ft | 227 kts | 99° |
| 2026-04-26 05:43 | 28.35508 | -81.24318 | 2877 ft | 249 kts | 70° |
| 2026-04-26 05:44 | 28.36120 | -81.22407 | 3325 ft | 263 kts | 68° |
| 2026-04-26 05:44 | 28.36763 | -81.20433 | 3925 ft | 270 kts | 69° |
| 2026-04-26 05:44 | 28.37393 | -81.18405 | 4569 ft | 275 kts | 70° |